createdAt,value
2023-03-05T00:09:15.030Z,98330.60
2023-03-05T00:19:39.818Z,98320.50
2023-03-05T00:30:06.411Z,98314.14
2023-03-05T00:40:30.762Z,98304.70
2023-03-05T00:50:55.103Z,98297.42
2023-03-05T01:01:20.122Z,98283.66
2023-03-05T01:11:44.894Z,98278.80
2023-03-05T01:22:09.774Z,98281.59
2023-03-05T01:32:35.748Z,98279.87
2023-03-05T01:43:22.068Z,98277.10
2023-03-05T01:53:46.577Z,98274.69
2023-03-05T02:04:14.586Z,98269.56
2023-03-05T02:14:41.121Z,98257.18
2023-03-05T02:25:15.428Z,98251.84
2023-03-05T02:35:39.680Z,98242.52
2023-03-05T02:46:04.653Z,98248.98
2023-03-05T02:56:29.060Z,98251.15
2023-03-05T03:06:54.001Z,98235.77
2023-03-05T03:17:19.959Z,98242.20
2023-03-05T03:27:44.995Z,98239.17
2023-03-05T03:38:11.277Z,98227.48
2023-03-05T03:48:36.205Z,98221.03
2023-03-05T03:59:01.056Z,98208.28
2023-03-05T04:09:25.314Z,98203.69
2023-03-05T04:19:49.555Z,98202.17
2023-03-05T04:30:14.968Z,98190.16
2023-03-05T04:40:39.558Z,98168.30
2023-03-05T04:51:04.410Z,98153.11
2023-03-05T05:01:28.677Z,98163.66
2023-03-05T05:11:53.893Z,98156.88
2023-03-05T05:22:18.635Z,98151.56
2023-03-05T05:32:42.917Z,98163.71
2023-03-05T05:43:07.588Z,98176.27
2023-03-05T05:53:31.858Z,98182.30
2023-03-05T06:03:57.701Z,98189.04
2023-03-05T06:14:22.507Z,98188.91
2023-03-05T06:24:47.306Z,98192.95
2023-03-05T06:35:11.987Z,98187.98
2023-03-05T06:45:36.924Z,98180.25
2023-03-05T06:56:02.388Z,98175.27
2023-03-05T07:06:27.828Z,98170.41
2023-03-05T07:16:52.983Z,98154.49
2023-03-05T07:27:17.912Z,98146.71
2023-03-05T07:37:42.729Z,98133.48
2023-03-05T07:48:08.032Z,98124.47
2023-03-05T07:58:32.228Z,98112.04
2023-03-05T08:08:57.334Z,98104.77
2023-03-05T08:19:22.723Z,98093.30
2023-03-05T08:29:47.264Z,98088.50
2023-03-05T08:40:14.001Z,98088.58
2023-03-05T08:50:39.068Z,98088.70
2023-03-05T09:01:05.145Z,98080.27
2023-03-05T09:11:29.466Z,98071.55
2023-03-05T09:21:56.621Z,98064.05
2023-03-05T09:32:21.315Z,98062.16
2023-03-05T09:43:00.889Z,98061.01
2023-03-05T09:53:37.088Z,98060.10
2023-03-05T10:04:11.142Z,98070.02
2023-03-05T10:14:39.539Z,98067.00
2023-03-05T10:25:20.294Z,98069.81
2023-03-05T10:36:10.976Z,98058.51
2023-03-05T10:46:38.330Z,98043.92
2023-03-05T10:57:18.329Z,98034.25
2023-03-05T11:07:42.554Z,98031.57
2023-03-05T11:18:20.680Z,98017.45
2023-03-05T11:28:59.235Z,98003.02
2023-03-05T11:39:24.346Z,97993.02
2023-03-05T11:49:52.464Z,97983.66
2023-03-05T12:00:21.951Z,97965.70
2023-03-05T12:10:46.657Z,97957.40
2023-03-05T12:21:22.193Z,97944.08
2023-03-05T12:31:46.576Z,97941.80
2023-03-05T12:42:45.967Z,97943.17
2023-03-05T12:53:13.825Z,97928.89
2023-03-05T13:03:52.451Z,97923.52
2023-03-05T13:14:40.376Z,97928.42
2023-03-05T13:25:14.314Z,97925.53
2023-03-05T13:35:45.436Z,97925.36
2023-03-05T13:46:10.523Z,97918.42
2023-03-05T13:56:35.361Z,97912.45
2023-03-05T14:07:03.125Z,97899.77
2023-03-05T14:17:41.202Z,97899.36
2023-03-05T14:28:07.524Z,97876.49
2023-03-05T14:38:34.212Z,97875.54
2023-03-05T14:48:59.099Z,97871.48
2023-03-05T14:59:23.634Z,97862.88
2023-03-05T15:09:49.243Z,97855.98
2023-03-05T15:20:18.368Z,97859.01
2023-03-05T15:30:45.917Z,97840.80
2023-03-05T15:41:10.228Z,97826.45
2023-03-05T15:51:35.106Z,97826.73
2023-03-05T16:01:59.743Z,97849.99
2023-03-05T16:12:31.111Z,97843.10
2023-03-05T16:22:55.448Z,97841.37
2023-03-05T16:33:19.716Z,97843.91
2023-03-05T16:43:45.359Z,97847.96
2023-03-05T16:54:10.409Z,97863.17
2023-03-05T17:04:35.041Z,97887.20
2023-03-05T17:14:59.883Z,97892.96
2023-03-05T17:25:24.854Z,97892.11
2023-03-05T17:35:49.742Z,97890.67
2023-03-05T17:46:15.317Z,97886.71
2023-03-05T17:56:39.491Z,97888.94
2023-03-05T18:07:03.956Z,97870.42
2023-03-05T18:17:28.420Z,97864.06
2023-03-05T18:27:53.358Z,97864.94
2023-03-05T18:38:18.902Z,97859.58
2023-03-05T18:48:43.826Z,97860.17
2023-03-05T18:59:08.024Z,97856.83
2023-03-05T19:09:48.284Z,97851.70
2023-03-05T19:20:15.409Z,97842.62
2023-03-05T19:30:39.597Z,97842.77
2023-03-05T19:41:04.429Z,97842.12
2023-03-05T19:51:28.657Z,97840.19
2023-03-05T20:01:53.553Z,97833.85
2023-03-05T20:12:18.530Z,97824.00
2023-03-05T20:22:47.684Z,97818.27
2023-03-05T20:33:12.813Z,97815.86
2023-03-05T20:43:40.716Z,97802.93
2023-03-05T20:54:08.226Z,97789.89
2023-03-05T21:04:32.466Z,97790.61
2023-03-05T21:14:56.691Z,97788.41
2023-03-05T21:25:26.901Z,97788.42
2023-03-05T21:35:52.445Z,97780.73
2023-03-05T21:46:16.770Z,97782.40
2023-03-05T21:56:40.992Z,97774.83
2023-03-05T22:07:06.549Z,97769.93
2023-03-05T22:17:30.981Z,97765.45
2023-03-05T22:27:55.453Z,97757.27
2023-03-05T22:38:19.806Z,97754.91
2023-03-05T22:48:44.881Z,97752.54
2023-03-05T22:59:09.080Z,97746.16
2023-03-05T23:09:33.420Z,97743.38
2023-03-05T23:19:57.616Z,97734.52
2023-03-05T23:30:22.845Z,97733.03
2023-03-05T23:40:50.004Z,97738.55
2023-03-05T23:51:14.450Z,97740.83
